This is the latest recevied weather packets stored in our database for station/object W8AN. If no packets are shown the sender has not sent any weather packets the latest 10 day(s).
| Time | Temp. | Humidity | Pressure | Rain* | Wind** | Luminosity | Snow |
|---|---|---|---|---|---|---|---|
| 1778194684 | 13.89° C | 36% | 4266.7 hPa | 0 mm | - | 72 W/m² | - |
| 1778194380 | 13.89° C | 35% | 4266.7 hPa | 0 mm | - | 96 W/m² | - |
| 1778194076 | 13.89° C | 35% | 4266.8 hPa | 0 mm | - | 143 W/m² | - |
| 1778193773 | 13.89° C | 38% | 4266.9 hPa | 0 mm | - | 127 W/m² | - |
| 1778193470 | 13.89° C | 35% | 4266.8 hPa | 0 mm | - | 127 W/m² | - |
| 1778193166 | 13.89° C | 36% | 4267 hPa | 0 mm | - | 109 W/m² | - |
| 1778192863 | 14.44° C | 35% | 4266.8 hPa | 0 mm | - | 143 W/m² | - |
| 1778192559 | 14.44° C | 34% | 4266.9 hPa | 0 mm | - | 117 W/m² | - |
| 1778192256 | 14.44° C | 35% | 4266.9 hPa | 0 mm | - | 121 W/m² | - |
| 1778191952 | 14.44° C | 33% | 4267 hPa | 0 mm | - | 293 W/m² | - |
| 1778191649 | 15° C | 31% | 4266.7 hPa | 0 mm | - | 214 W/m² | - |
| 1778191348 | 15° C | 34% | 4266.7 hPa | 0 mm | - | 302 W/m² | - |
| 1778191043 | 15.56° C | 34% | 4266.8 hPa | 0 mm | - | 363 W/m² | - |
| 1778190741 | 15° C | 32% | 4266.9 hPa | 0 mm | - | 390 W/m² | - |
| 1778190438 | 15° C | 33% | 4266.8 hPa | 0 mm | - | 378 W/m² | - |
| 1778190135 | 15.56° C | 32% | 4266.9 hPa | 0 mm | - | 402 W/m² | - |
| 1778189830 | 15° C | 33% | 4266.7 hPa | 0 mm | - | 430 W/m² | - |
| 1778189528 | 15° C | 34% | 4266.8 hPa | 0 mm | - | 447 W/m² | - |
| 1778189224 | 15° C | 33% | 4266.7 hPa | 0 mm | - | 466 W/m² | - |
| 1778188921 | 14.44° C | 34% | 4266.5 hPa | 0 mm | - | 483 W/m² | - |
| 1778188617 | 13.89° C | 35% | 4266.8 hPa | 0 mm | - | 153 W/m² | - |
| 1778188313 | 14.44° C | 36% | 4266.8 hPa | 0 mm | - | 491 W/m² | - |
| 1778188010 | 14.44° C | 36% | 4266.9 hPa | 0 mm | - | 432 W/m² | - |
| 1778187707 | 13.33° C | 38% | 4267 hPa | 0 mm | - | 143 W/m² | - |
| 1778187404 | 13.33° C | 38% | 4267 hPa | 0 mm | - | 117 W/m² | - |
* Rain latest hour (hover to see other rain measurements)
** Current wind speed in m/s (hover to see current wind gust speed)